Time;durP1;ratioP1;P1;durP2;ratioP2;P2;SDS_P1;SDS_P2;PMS_P1;PMS_P2;Temp;Humidity;BMP_temperature;BMP_pressure;BME280_temperature;BME280_humidity;BME280_pressure;Samples;Min_cycle;Max_cycle;Signal;HPM_P1;HPM_P2
2024/01/09 00:04:47;;;;;;;11.30;5.80;;;;;-4.00;102560.00;;;;9832237;29;20238;-87
2024/01/09 00:09:48;;;;;;;9.63;5.27;;;;;-4.10;102561.00;;;;9844832;29;20748;-89
2024/01/09 00:14:49;;;;;;;7.43;4.87;;;;;-4.20;102553.00;;;;9826590;30;20240;-86
2024/01/09 00:19:50;;;;;;;11.43;4.93;;;;;-4.20;102562.00;;;;9833634;29;20228;-88
2024/01/09 00:24:52;;;;;;;8.13;5.07;;;;;-4.30;102547.00;;;;9832951;29;20260;-88
2024/01/09 00:29:53;;;;;;;8.17;5.10;;;;;-4.30;102543.00;;;;9852997;29;20583;-88
2024/01/09 00:34:54;;;;;;;9.97;5.53;;;;;-4.30;102542.00;;;;9832807;29;20232;-89
2024/01/09 00:39:55;;;;;;;9.07;5.07;;;;;-4.40;102546.00;;;;9832650;29;20232;-85
2024/01/09 00:45:00;;;;;;;7.93;5.50;;;;;-4.40;102542.00;;;;9831013;29;20236;-84
2024/01/09 00:50:02;;;;;;;8.73;4.90;;;;;-4.40;102539.00;;;;9815791;29;20239;-84
2024/01/09 00:55:03;;;;;;;8.23;4.60;;;;;-4.40;102540.00;;;;9835718;29;20247;-85
2024/01/09 01:00:08;;;;;;;11.60;5.47;;;;;-4.40;102549.00;;;;9831088;29;20632;-84
2024/01/09 01:05:14;;;;;;;8.10;5.13;;;;;-4.40;102546.00;;;;9827306;29;20266;-85
2024/01/09 01:10:15;;;;;;;9.67;5.57;;;;;-4.40;102535.00;;;;9830921;29;20221;-85
2024/01/09 01:15:23;;;;;;;9.93;5.57;;;;;-4.50;102545.00;;;;9840248;29;20245;-84
2024/01/09 01:20:24;;;;;;;6.27;4.37;;;;;-4.50;102539.00;;;;9828159;29;20259;-84
2024/01/09 01:25:25;;;;;;;10.83;5.67;;;;;-4.50;102548.00;;;;9815701;29;20232;-85
2024/01/09 01:30:27;;;;;;;9.33;5.43;;;;;-4.60;102545.00;;;;9813808;29;20235;-84
2024/01/09 01:35:28;;;;;;;7.13;4.23;;;;;-4.60;102544.00;;;;9892909;29;20242;-84
2024/01/09 01:40:29;;;;;;;10.43;5.00;;;;;-4.70;102550.00;;;;9834628;29;20319;-84
2024/01/09 01:45:31;;;;;;;11.63;5.90;;;;;-4.60;102547.00;;;;9826965;29;20260;-85
2024/01/09 01:50:33;;;;;;;9.83;5.67;;;;;-4.60;102536.00;;;;9811426;29;20247;-84
2024/01/09 01:55:35;;;;;;;7.70;4.93;;;;;-4.70;102545.00;;;;9828826;29;20592;-85
2024/01/09 02:00:38;;;;;;;9.60;5.10;;;;;-4.70;102543.00;;;;9827616;29;20235;-84
2024/01/09 02:05:39;;;;;;;8.43;5.50;;;;;-4.70;102540.00;;;;9826341;29;20227;-85
2024/01/09 02:10:41;;;;;;;11.07;4.80;;;;;-4.70;102542.00;;;;9826151;29;20232;-84
2024/01/09 02:15:42;;;;;;;11.50;5.93;;;;;-4.80;102540.00;;;;9826912;29;20327;-84
2024/01/09 02:20:43;;;;;;;9.77;4.70;;;;;-4.80;102546.00;;;;9826247;29;20252;-84
2024/01/09 02:25:46;;;;;;;10.37;5.10;;;;;-4.80;102546.00;;;;9810577;29;20918;-83
2024/01/09 02:30:47;;;;;;;8.83;5.50;;;;;-4.90;102540.00;;;;9831410;29;20628;-83
2024/01/09 02:35:49;;;;;;;9.07;4.43;;;;;-4.90;102533.00;;;;9828623;29;20232;-83
2024/01/09 02:40:50;;;;;;;8.13;4.87;;;;;-4.90;102531.00;;;;9832823;29;20228;-84
2024/01/09 02:45:52;;;;;;;10.97;5.67;;;;;-5.00;102535.00;;;;9822715;29;21397;-83
2024/01/09 02:50:53;;;;;;;9.53;5.53;;;;;-5.00;102537.00;;;;9831890;29;20235;-84
2024/01/09 02:55:54;;;;;;;9.73;5.77;;;;;-5.00;102530.00;;;;9822568;29;20827;-82
2024/01/09 03:00:55;;;;;;;10.70;5.47;;;;;-5.00;102523.00;;;;9819384;29;20227;-78
2024/01/09 03:05:57;;;;;;;11.00;6.13;;;;;-5.00;102520.00;;;;9835688;29;20285;-78
2024/01/09 03:10:58;;;;;;;9.27;5.90;;;;;-5.00;102528.00;;;;9822575;29;20236;-78
2024/01/09 03:15:59;;;;;;;10.30;5.97;;;;;-5.00;102520.00;;;;9799368;29;20254;-78
2024/01/09 03:21:01;;;;;;;8.13;5.03;;;;;-5.00;102524.00;;;;9844407;29;20852;-80
2024/01/09 03:26:03;;;;;;;10.53;5.67;;;;;-5.10;102525.00;;;;9819108;29;20239;-78
2024/01/09 03:31:04;;;;;;;7.87;5.57;;;;;-5.20;102511.00;;;;9822958;29;20235;-78
2024/01/09 03:36:06;;;;;;;9.13;5.83;;;;;-5.20;102514.00;;;;9819953;29;20748;-78
2024/01/09 03:41:07;;;;;;;9.00;5.37;;;;;-5.20;102516.00;;;;9833322;29;20307;-78
2024/01/09 03:46:08;;;;;;;9.83;5.40;;;;;-5.20;102518.00;;;;9833022;29;20239;-78
2024/01/09 03:51:09;;;;;;;9.90;6.10;;;;;-5.20;102515.00;;;;9836602;29;20315;-79
2024/01/09 03:56:11;;;;;;;9.10;5.13;;;;;-5.20;102503.00;;;;9838654;29;20232;-79
2024/01/09 04:01:12;;;;;;;8.10;4.87;;;;;-5.20;102510.00;;;;9815258;29;21056;-78
2024/01/09 04:06:13;;;;;;;10.17;5.70;;;;;-5.30;102500.00;;;;9815690;29;20307;-78
2024/01/09 04:11:15;;;;;;;8.10;5.13;;;;;-5.30;102491.00;;;;9810989;29;20234;-84
2024/01/09 04:16:18;;;;;;;9.20;5.67;;;;;-5.30;102494.00;;;;9823280;29;20246;-84
2024/01/09 04:21:19;;;;;;;8.07;5.23;;;;;-5.30;102483.00;;;;9828532;29;20297;-83
2024/01/09 04:26:20;;;;;;;9.30;5.07;;;;;-5.30;102490.00;;;;9829353;29;20273;-84
2024/01/09 04:31:25;;;;;;;10.73;5.30;;;;;-5.30;102490.00;;;;9815126;29;20236;-83
2024/01/09 04:36:26;;;;;;;10.40;5.50;;;;;-5.30;102487.00;;;;9885369;29;20232;-83
2024/01/09 04:41:27;;;;;;;8.73;5.10;;;;;-5.30;102493.00;;;;9831071;30;20282;-84
2024/01/09 04:46:29;;;;;;;9.93;5.90;;;;;-5.40;102476.00;;;;9821023;29;20257;-84
2024/01/09 04:51:31;;;;;;;7.87;4.87;;;;;-5.40;102493.00;;;;9836727;29;20240;-84
2024/01/09 04:56:32;;;;;;;11.27;4.97;;;;;-5.40;102493.00;;;;9829801;29;20239;-84
2024/01/09 05:01:33;;;;;;;7.97;4.53;;;;;-5.50;102497.00;;;;9829400;29;20224;-84
2024/01/09 05:06:34;;;;;;;11.43;5.73;;;;;-5.50;102497.00;;;;9823371;29;20910;-84
2024/01/09 05:11:36;;;;;;;9.97;5.43;;;;;-5.50;102501.00;;;;9829941;29;20411;-84
2024/01/09 05:16:37;;;;;;;9.33;5.57;;;;;-5.50;102506.00;;;;9844668;29;20244;-83
2024/01/09 05:21:38;;;;;;;5.77;4.27;;;;;-5.50;102512.00;;;;9814689;29;20300;-80
2024/01/09 05:26:40;;;;;;;7.73;4.67;;;;;-5.60;102512.00;;;;9842923;29;20849;-78
2024/01/09 05:31:45;;;;;;;7.33;5.30;;;;;-5.50;102516.00;;;;9810066;29;20942;-78
2024/01/09 05:36:46;;;;;;;9.47;5.07;;;;;-5.60;102503.00;;;;9805863;29;20231;-78
2024/01/09 05:41:47;;;;;;;9.67;5.37;;;;;-5.60;102513.00;;;;9843215;29;20235;-79
2024/01/09 05:46:50;;;;;;;6.60;4.37;;;;;-5.60;102507.00;;;;9822439;29;20318;-79
2024/01/09 05:51:52;;;;;;;7.50;4.87;;;;;-5.60;102506.00;;;;9844017;29;20231;-79
2024/01/09 05:56:53;;;;;;;8.03;4.70;;;;;-5.60;102509.00;;;;9825504;29;20239;-80
2024/01/09 06:01:54;;;;;;;8.90;4.90;;;;;-5.60;102512.00;;;;9849589;29;20294;-79
2024/01/09 06:06:56;;;;;;;7.37;5.17;;;;;-5.70;102512.00;;;;9819382;29;20299;-79
2024/01/09 06:11:57;;;;;;;10.60;5.60;;;;;-5.70;102516.00;;;;9817618;29;20240;-81
2024/01/09 06:16:58;;;;;;;7.53;4.53;;;;;-5.80;102517.00;;;;9818656;29;20228;-80
2024/01/09 06:21:59;;;;;;;8.20;4.80;;;;;-5.80;102520.00;;;;9836378;29;20239;-80
2024/01/09 06:27:01;;;;;;;7.10;4.37;;;;;-5.80;102512.00;;;;9836561;29;20603;-80
2024/01/09 06:32:02;;;;;;;8.00;4.30;;;;;-5.80;102511.00;;;;9825649;29;20407;-79
2024/01/09 06:37:03;;;;;;;11.17;5.03;;;;;-5.80;102515.00;;;;9823416;29;20247;-79
2024/01/09 06:42:05;;;;;;;7.60;5.03;;;;;-5.90;102516.00;;;;9849754;29;20592;-79
2024/01/09 06:47:06;;;;;;;9.57;4.97;;;;;-5.90;102516.00;;;;9817376;29;20240;-79
2024/01/09 06:52:07;;;;;;;9.90;4.60;;;;;-5.90;102520.00;;;;9821541;29;20272;-78
2024/01/09 06:57:09;;;;;;;7.67;4.70;;;;;-5.90;102521.00;;;;9818382;29;20236;-83
2024/01/09 07:02:10;;;;;;;7.80;4.53;;;;;-5.90;102521.00;;;;9814837;29;20232;-83
2024/01/09 07:07:12;;;;;;;7.57;4.23;;;;;-5.90;102516.00;;;;9823722;29;20265;-82
2024/01/09 07:12:16;;;;;;;10.80;5.13;;;;;-6.00;102523.00;;;;9819411;29;20236;-82
2024/01/09 07:17:17;;;;;;;8.27;4.37;;;;;-6.00;102514.00;;;;9812031;29;20244;-80
2024/01/09 07:22:18;;;;;;;11.00;6.17;;;;;-6.00;102528.00;;;;9832421;29;20389;-80
2024/01/09 07:27:20;;;;;;;8.97;4.63;;;;;-6.10;102526.00;;;;9819252;29;20618;-80
2024/01/09 07:32:21;;;;;;;9.60;5.43;;;;;-6.10;102527.00;;;;9804372;29;20240;-80
2024/01/09 07:37:22;;;;;;;8.03;5.37;;;;;-6.10;102531.00;;;;9832526;29;20251;-80
2024/01/09 07:42:23;;;;;;;8.47;5.33;;;;;-6.00;102534.00;;;;9825300;29;20294;-85
2024/01/09 07:47:25;;;;;;;11.93;6.37;;;;;-6.00;102537.00;;;;9829947;29;20236;-85
2024/01/09 07:52:26;;;;;;;9.47;5.27;;;;;-6.00;102546.00;;;;9823805;29;20232;-85
2024/01/09 07:57:29;;;;;;;11.10;6.00;;;;;-5.90;102534.00;;;;9821828;29;21243;-84
2024/01/09 08:02:33;;;;;;;9.17;5.43;;;;;-5.90;102533.00;;;;9829229;29;20239;-84
2024/01/09 08:07:34;;;;;;;10.70;6.07;;;;;-5.80;102548.00;;;;9825565;29;20725;-85
2024/01/09 08:12:36;;;;;;;8.33;4.33;;;;;-5.70;102537.00;;;;9837267;29;20240;-84
2024/01/09 08:17:37;;;;;;;10.00;5.87;;;;;-5.60;102543.00;;;;9842624;29;20240;-85
2024/01/09 08:22:38;;;;;;;7.67;5.43;;;;;-5.60;102546.00;;;;9845409;29;20232;-85
2024/01/09 08:27:40;;;;;;;11.37;5.23;;;;;-5.40;102547.00;;;;9826721;29;20236;-84
2024/01/09 08:32:41;;;;;;;8.43;4.90;;;;;-5.30;102555.00;;;;9830305;29;20238;-84
2024/01/09 08:37:43;;;;;;;9.90;5.97;;;;;-5.20;102550.00;;;;9842163;29;20606;-85
2024/01/09 08:42:44;;;;;;;12.30;5.93;;;;;-5.00;102540.00;;;;9844453;29;20224;-83
2024/01/09 08:47:46;;;;;;;8.27;5.27;;;;;-4.90;102551.00;;;;9822456;29;20320;-84
2024/01/09 08:52:47;;;;;;;11.50;5.73;;;;;-4.70;102549.00;;;;9818103;30;20228;-84
2024/01/09 08:57:49;;;;;;;12.27;5.87;;;;;-4.50;102556.00;;;;9821329;29;20297;-83
2024/01/09 09:02:50;;;;;;;11.60;6.13;;;;;-4.30;102568.00;;;;9825791;29;20252;-84
2024/01/09 09:07:53;;;;;;;9.17;5.23;;;;;-3.80;102573.00;;;;9822893;29;20235;-83
2024/01/09 09:12:54;;;;;;;7.57;4.53;;;;;-3.40;102576.00;;;;9818197;29;20225;-83
2024/01/09 09:17:56;;;;;;;10.87;5.50;;;;;-2.90;102577.00;;;;9827332;29;20232;-83
2024/01/09 09:22:58;;;;;;;11.23;5.10;;;;;-2.60;102574.00;;;;9809772;29;20232;-83
2024/01/09 09:27:59;;;;;;;8.87;5.23;;;;;-2.40;102571.00;;;;9843262;29;20258;-84
2024/01/09 09:33:01;;;;;;;10.77;5.13;;;;;-2.30;102569.00;;;;9821122;29;20896;-83
2024/01/09 09:38:04;;;;;;;12.00;5.50;;;;;-2.10;102570.00;;;;9823022;29;20725;-82
2024/01/09 09:43:14;;;;;;;9.47;6.53;;;;;-2.00;102569.00;;;;9850501;29;20232;-83
2024/01/09 09:48:16;;;;;;;12.13;5.93;;;;;-1.80;102577.00;;;;9822982;29;20881;-83
2024/01/09 09:53:18;;;;;;;9.03;4.77;;;;;-1.70;102570.00;;;;9813088;29;20302;-82
2024/01/09 09:58:19;;;;;;;12.00;5.80;;;;;-1.50;102572.00;;;;9823018;30;20804;-83
2024/01/09 10:03:22;;;;;;;9.00;5.70;;;;;-1.40;102572.00;;;;9818298;29;20307;-81
2024/01/09 10:08:24;;;;;;;7.50;4.63;;;;;-1.10;102565.00;;;;9835319;29;20777;-80
2024/01/09 10:13:26;;;;;;;12.00;6.13;;;;;-0.90;102561.00;;;;9805883;29;20248;-79
2024/01/09 10:18:28;;;;;;;10.23;5.57;;;;;-0.70;102569.00;;;;9815651;29;20326;-79
2024/01/09 10:23:34;;;;;;;7.63;5.60;;;;;-0.50;102548.00;;;;9829399;29;20258;-79
2024/01/09 10:28:36;;;;;;;10.13;5.73;;;;;-0.30;102546.00;;;;9824466;29;20235;-84
2024/01/09 10:33:41;;;;;;;8.67;4.80;;;;;-0.20;102535.00;;;;9811055;29;20654;-78
2024/01/09 10:38:45;;;;;;;8.67;5.47;;;;;0.00;102530.00;;;;9813128;29;20285;-80
2024/01/09 10:43:49;;;;;;;5.03;3.83;;;;;0.20;102535.00;;;;9806769;29;20239;-80
2024/01/09 10:48:51;;;;;;;9.03;5.50;;;;;0.30;102524.00;;;;9829204;29;20228;-81
2024/01/09 10:53:53;;;;;;;7.77;5.23;;;;;0.40;102520.00;;;;9796214;29;20239;-80
2024/01/09 10:58:57;;;;;;;8.27;5.33;;;;;0.60;102512.00;;;;9846182;29;20588;-83
2024/01/09 11:03:58;;;;;;;6.50;4.50;;;;;0.80;102520.00;;;;9820420;29;20282;-81
2024/01/09 11:09:04;;;;;;;9.47;5.53;;;;;0.80;102496.00;;;;9813361;29;20231;-81
2024/01/09 11:14:09;;;;;;;7.10;5.07;;;;;0.80;102494.00;;;;9838327;29;20232;-86
2024/01/09 11:19:13;;;;;;;8.83;5.30;;;;;1.00;102492.00;;;;9808998;29;20255;-85
2024/01/09 11:24:14;;;;;;;7.50;5.23;;;;;1.20;102483.00;;;;9843177;29;20307;-87
2024/01/09 11:29:49;;;;;;;8.67;4.63;;;;;1.40;102491.00;;;;9868010;29;20232;-88
2024/01/09 11:35:12;;;;;;;8.27;5.30;;;;;1.30;102476.00;;;;9834871;29;20271;-85
2024/01/09 11:40:16;;;;;;;8.67;5.20;;;;;1.40;102477.00;;;;9856939;29;20261;-89
2024/01/09 11:45:24;;;;;;;12.50;4.97;;;;;1.40;102469.00;;;;9824406;29;20240;-87
2024/01/09 11:50:26;;;;;;;7.17;4.90;;;;;1.30;102456.00;;;;9831715;29;20231;-85
2024/01/09 11:55:27;;;;;;;7.40;5.17;;;;;1.40;102462.00;;;;9840794;29;20606;-85
2024/01/09 12:00:29;;;;;;;7.33;4.80;;;;;1.40;102445.00;;;;9835382;29;20235;-87
2024/01/09 12:05:30;;;;;;;6.63;4.77;;;;;1.40;102451.00;;;;9840709;29;20235;-85
2024/01/09 12:10:31;;;;;;;6.67;4.23;;;;;1.40;102440.00;;;;9831968;29;20236;-85
2024/01/09 12:15:34;;;;;;;6.33;4.47;;;;;1.40;102443.00;;;;9847438;29;20242;-86
2024/01/09 12:20:36;;;;;;;6.40;4.57;;;;;1.40;102432.00;;;;9841015;29;20236;-81
2024/01/09 12:25:37;;;;;;;6.40;4.93;;;;;1.60;102419.00;;;;9823812;29;20236;-82
2024/01/09 12:30:38;;;;;;;6.97;4.97;;;;;1.80;102415.00;;;;9840715;29;20899;-83
2024/01/09 12:35:42;;;;;;;10.13;5.40;;;;;1.80;102404.00;;;;9826048;29;20236;-82
2024/01/09 12:40:44;;;;;;;7.27;4.83;;;;;1.80;102403.00;;;;9842564;29;20263;-83
2024/01/09 12:45:45;;;;;;;7.37;4.57;;;;;1.90;102388.00;;;;9824611;29;20232;-83
2024/01/09 12:51:06;;;;;;;8.17;5.07;;;;;2.00;102381.00;;;;9817692;29;20260;-81
2024/01/09 12:56:10;;;;;;;8.63;4.73;;;;;1.80;102371.00;;;;9844370;29;20244;-79
2024/01/09 13:01:15;;;;;;;10.40;4.87;;;;;1.80;102364.00;;;;9840480;29;20966;-82
2024/01/09 13:06:16;;;;;;;6.87;4.53;;;;;1.80;102362.00;;;;9825135;29;20239;-83
2024/01/09 13:11:18;;;;;;;6.83;3.83;;;;;1.80;102360.00;;;;9807756;29;20851;-83
2024/01/09 13:16:19;;;;;;;5.83;4.07;;;;;1.60;102358.00;;;;9824046;29;20236;-80
2024/01/09 13:21:21;;;;;;;7.03;4.30;;;;;1.60;102349.00;;;;9822929;29;21035;-81
2024/01/09 13:26:23;;;;;;;7.80;4.37;;;;;1.50;102337.00;;;;9811922;29;20242;-82
2024/01/09 13:31:24;;;;;;;9.87;4.93;;;;;1.40;102349.00;;;;9810947;29;20255;-84
2024/01/09 13:36:26;;;;;;;9.10;4.90;;;;;1.20;102351.00;;;;9827117;29;20236;-84
2024/01/09 13:41:28;;;;;;;11.03;4.73;;;;;1.20;102340.00;;;;9825098;29;20236;-85
2024/01/09 13:46:31;;;;;;;6.70;3.77;;;;;1.10;102340.00;;;;9804872;29;20245;-82
2024/01/09 13:51:33;;;;;;;7.37;4.60;;;;;0.80;102349.00;;;;9837357;29;20258;-81
2024/01/09 13:56:37;;;;;;;8.63;4.70;;;;;0.80;102344.00;;;;9850629;29;20248;-83
2024/01/09 14:01:38;;;;;;;8.30;4.60;;;;;0.70;102341.00;;;;9831375;29;20731;-87
2024/01/09 14:06:47;;;;;;;8.37;4.07;;;;;0.80;102334.00;;;;9834992;29;20228;-86
2024/01/09 14:11:48;;;;;;;5.97;3.43;;;;;0.60;102335.00;;;;9820784;29;20897;-85
2024/01/09 14:16:50;;;;;;;6.90;4.10;;;;;0.30;102333.00;;;;9821880;29;20339;-84
2024/01/09 14:21:52;;;;;;;10.17;5.53;;;;;0.20;102333.00;;;;9830437;29;20258;-85
2024/01/09 14:26:53;;;;;;;7.77;4.90;;;;;0.00;102343.00;;;;9810424;29;20231;-84
2024/01/09 14:31:55;;;;;;;9.07;4.00;;;;;-0.10;102339.00;;;;9815301;29;20262;-83
2024/01/09 14:36:56;;;;;;;6.20;4.40;;;;;-0.20;102335.00;;;;9828721;29;20260;-85
2024/01/09 14:41:58;;;;;;;7.30;4.40;;;;;-0.30;102346.00;;;;9818426;29;20236;-86
2024/01/09 14:47:00;;;;;;;8.43;4.93;;;;;-0.40;102340.00;;;;9847355;30;20236;-84
2024/01/09 14:52:02;;;;;;;8.73;4.23;;;;;-0.40;102333.00;;;;9834142;29;20256;-85
2024/01/09 14:57:04;;;;;;;6.10;4.07;;;;;-0.40;102340.00;;;;9837146;29;20908;-86
2024/01/09 15:02:05;;;;;;;11.43;5.03;;;;;-0.50;102328.00;;;;9812222;29;20236;-84
2024/01/09 15:07:07;;;;;;;6.70;4.23;;;;;-0.60;102342.00;;;;9813016;29;20259;-86
2024/01/09 15:12:11;;;;;;;8.53;4.60;;;;;-0.70;102344.00;;;;9819976;29;20242;-88
2024/01/09 15:17:12;;;;;;;5.50;3.97;;;;;-0.70;102353.00;;;;9998693;24;20232;-86
2024/01/09 15:22:16;;;;;;;6.80;4.27;;;;;-0.80;102346.00;;;;9868177;29;20232;-87
2024/01/09 15:27:17;;;;;;;7.40;4.90;;;;;-0.90;102337.00;;;;9867960;29;20235;-85
2024/01/09 15:32:39;;;;;;;8.53;4.87;;;;;-0.90;102342.00;;;;9875224;24;20250;31
2024/01/09 15:37:41;;;;;;;11.80;4.93;;;;;-1.00;102333.00;;;;9901144;24;20235;-88
2024/01/09 15:43:03;;;;;;;9.05;4.65;;;;;-1.10;102348.00;;;;9959774;24;20219;31
2024/01/09 15:48:05;;;;;;;7.67;4.30;;;;;-1.20;102346.00;;;;9827461;30;20248;-85
2024/01/09 15:53:07;;;;;;;9.23;4.47;;;;;-1.30;102352.00;;;;9775806;30;20400;-83
2024/01/09 15:58:09;;;;;;;9.47;4.30;;;;;-1.40;102363.00;;;;9777616;30;20278;-81
2024/01/09 16:03:13;;;;;;;8.77;4.33;;;;;-1.50;102354.00;;;;9808980;29;21389;-81
2024/01/09 16:08:15;;;;;;;8.37;4.60;;;;;-1.70;102347.00;;;;9794019;30;20302;-82
2024/01/09 16:13:16;;;;;;;8.93;4.20;;;;;-1.70;102356.00;;;;9782848;30;20233;-81
2024/01/09 16:18:18;;;;;;;5.67;4.10;;;;;-1.80;102359.00;;;;9788375;30;20919;-81
2024/01/09 16:23:20;;;;;;;7.13;4.20;;;;;-1.90;102356.00;;;;9805592;30;20232;-81
2024/01/09 16:28:21;;;;;;;9.60;4.30;;;;;-2.00;102361.00;;;;9772494;30;20256;-81
2024/01/09 16:33:23;;;;;;;7.13;4.00;;;;;-2.00;102368.00;;;;9802338;30;20264;-80
2024/01/09 16:38:30;;;;;;;6.50;4.43;;;;;-2.10;102376.00;;;;9776456;30;20392;-81
2024/01/09 16:43:31;;;;;;;6.43;4.33;;;;;-2.30;102373.00;;;;9770574;30;20625;-81
2024/01/09 16:48:37;;;;;;;11.47;4.47;;;;;-2.30;102369.00;;;;9806749;30;20237;-81
2024/01/09 16:53:46;;;;;;;8.13;4.43;;;;;-2.30;102371.00;;;;9805073;30;20240;-80
2024/01/09 16:58:51;;;;;;;7.30;4.17;;;;;-2.30;102364.00;;;;9794281;30;20328;-82
2024/01/09 17:03:53;;;;;;;9.73;4.30;;;;;-2.30;102356.00;;;;9810206;30;20264;-78
2024/01/09 17:08:54;;;;;;;9.93;4.87;;;;;-2.40;102370.00;;;;9783412;30;20592;-79
2024/01/09 17:13:56;;;;;;;8.70;4.00;;;;;-2.40;102358.00;;;;9772637;30;20225;-80
2024/01/09 17:18:57;;;;;;;7.27;4.00;;;;;-2.40;102357.00;;;;9778193;30;20309;-78
2024/01/09 17:23:59;;;;;;;6.27;3.63;;;;;-2.50;102364.00;;;;9806649;30;20256;-80
2024/01/09 17:29:00;;;;;;;9.50;4.63;;;;;-2.50;102372.00;;;;9774081;30;20268;-80
2024/01/09 17:34:02;;;;;;;6.40;4.30;;;;;-2.60;102369.00;;;;9783385;30;20251;-80
2024/01/09 17:39:04;;;;;;;7.37;4.33;;;;;-2.60;102373.00;;;;9810901;30;20905;-80
2024/01/09 17:44:05;;;;;;;5.17;3.47;;;;;-2.60;102386.00;;;;9805062;30;20320;-79
2024/01/09 17:49:07;;;;;;;9.03;4.57;;;;;-2.70;102396.00;;;;9796836;30;20229;-79
2024/01/09 17:54:09;;;;;;;8.47;4.93;;;;;-2.70;102403.00;;;;9806321;30;20243;-79
2024/01/09 17:59:10;;;;;;;10.43;5.40;;;;;-2.80;102411.00;;;;9804886;30;20233;-80
2024/01/09 18:04:19;;;;;;;8.33;4.83;;;;;-2.90;102408.00;;;;9806003;30;20331;-80
2024/01/09 18:09:24;;;;;;;6.27;4.13;;;;;-2.90;102415.00;;;;9812903;30;20651;-79
2024/01/09 18:14:25;;;;;;;9.83;4.73;;;;;-2.90;102413.00;;;;9772895;30;20240;-78
2024/01/09 18:19:26;;;;;;;8.73;5.00;;;;;-3.00;102411.00;;;;9763266;30;20712;-79
2024/01/09 18:24:29;;;;;;;10.37;5.27;;;;;-3.00;102411.00;;;;9792212;30;20700;-79
2024/01/09 18:29:30;;;;;;;6.83;3.83;;;;;-3.00;102414.00;;;;9754888;30;20267;-78
2024/01/09 18:34:33;;;;;;;8.03;4.57;;;;;-3.10;102402.00;;;;9808879;30;20239;-80
2024/01/09 18:39:36;;;;;;;10.10;5.53;;;;;-3.10;102407.00;;;;9791463;30;20306;-84
2024/01/09 18:44:37;;;;;;;10.00;4.87;;;;;-3.10;102402.00;;;;9785907;30;20225;-80
2024/01/09 18:49:39;;;;;;;8.13;5.17;;;;;-3.20;102391.00;;;;9773451;30;20865;-81
2024/01/09 18:54:40;;;;;;;8.33;5.00;;;;;-3.20;102395.00;;;;9786500;30;20967;-80
2024/01/09 18:59:42;;;;;;;10.03;5.70;;;;;-3.20;102398.00;;;;9813063;30;20293;-82
2024/01/09 19:04:43;;;;;;;9.70;5.37;;;;;-3.20;102388.00;;;;9820733;29;20778;-80
2024/01/09 19:09:47;;;;;;;8.83;5.73;;;;;-3.20;102396.00;;;;9772824;30;20303;-79
2024/01/09 19:14:48;;;;;;;11.83;5.50;;;;;-3.20;102392.00;;;;9776560;30;20283;-79
2024/01/09 19:19:54;;;;;;;11.97;5.43;;;;;-3.20;102389.00;;;;9787778;30;20328;-81
2024/01/09 19:24:55;;;;;;;9.60;4.87;;;;;-3.30;102396.00;;;;9773537;30;20247;-82
2024/01/09 19:29:56;;;;;;;8.47;5.67;;;;;-3.40;102399.00;;;;9776088;30;20236;-80
2024/01/09 19:34:58;;;;;;;11.80;6.07;;;;;-3.40;102392.00;;;;9760324;30;20298;-79
2024/01/09 19:40:00;;;;;;;8.87;5.73;;;;;-3.40;102393.00;;;;9774595;30;20306;-80
2024/01/09 19:45:03;;;;;;;10.50;5.27;;;;;-3.40;102383.00;;;;9775057;30;20671;-80
2024/01/09 19:50:05;;;;;;;8.70;5.00;;;;;-3.40;102383.00;;;;9803015;30;20237;-79
2024/01/09 19:55:10;;;;;;;11.63;4.93;;;;;-3.40;102387.00;;;;9755211;30;20241;-79
2024/01/09 20:00:12;;;;;;;9.50;4.73;;;;;-3.50;102377.00;;;;9803506;30;20824;-79
2024/01/09 20:05:15;;;;;;;10.77;5.60;;;;;-3.50;102383.00;;;;9786659;30;20232;-79
2024/01/09 20:10:18;;;;;;;9.33;5.20;;;;;-3.60;102383.00;;;;9793954;30;20865;-82
2024/01/09 20:15:20;;;;;;;11.43;5.77;;;;;-3.60;102378.00;;;;9788762;30;20228;-79
2024/01/09 20:20:21;;;;;;;8.80;5.50;;;;;-3.50;102382.00;;;;9791290;30;20260;-78
2024/01/09 20:25:22;;;;;;;8.97;5.47;;;;;-3.50;102383.00;;;;9806583;30;20251;-79
2024/01/09 20:30:24;;;;;;;12.33;5.70;;;;;-3.50;102392.00;;;;9776209;30;20252;-83
2024/01/09 20:35:26;;;;;;;8.37;4.60;;;;;-3.60;102383.00;;;;9782977;30;20267;-82
2024/01/09 20:40:27;;;;;;;10.70;5.60;;;;;-3.70;102381.00;;;;9792862;30;20245;-83
2024/01/09 20:45:28;;;;;;;8.43;5.23;;;;;-3.70;102386.00;;;;9795281;30;20241;-83
2024/01/09 20:50:30;;;;;;;15.13;5.80;;;;;-3.70;102386.00;;;;9798279;30;20303;-82
2024/01/09 20:55:31;;;;;;;9.30;5.30;;;;;-3.80;102383.00;;;;9792646;30;20261;-83
2024/01/09 21:00:32;;;;;;;9.53;4.90;;;;;-3.90;102398.00;;;;9811984;30;20237;-83
2024/01/09 21:05:35;;;;;;;10.13;5.93;;;;;-3.90;102397.00;;;;9771943;30;20268;-83
2024/01/09 21:10:41;;;;;;;10.10;5.60;;;;;-4.00;102389.00;;;;9781293;30;20314;-83
2024/01/09 21:15:43;;;;;;;15.73;6.80;;;;;-4.10;102385.00;;;;9796714;30;20225;-83
2024/01/09 21:20:44;;;;;;;13.17;6.13;;;;;-4.10;102392.00;;;;9772505;30;20256;-84
2024/01/09 21:25:45;;;;;;;14.53;5.93;;;;;-4.20;102394.00;;;;9807414;30;20231;-84
2024/01/09 21:30:47;;;;;;;13.57;6.40;;;;;-4.30;102399.00;;;;9809890;29;20225;-83
2024/01/09 21:35:48;;;;;;;12.67;6.43;;;;;-4.30;102383.00;;;;9784492;30;20298;-83
2024/01/09 21:40:50;;;;;;;13.13;5.73;;;;;-4.30;102386.00;;;;9811308;30;20248;-79
2024/01/09 21:45:59;;;;;;;15.33;6.47;;;;;-4.30;102399.00;;;;9787448;30;20775;-79
2024/01/09 21:51:01;;;;;;;11.33;5.77;;;;;-4.40;102394.00;;;;9778418;30;20241;-79
2024/01/09 21:56:03;;;;;;;10.30;5.53;;;;;-4.40;102390.00;;;;9776722;30;20361;-79
2024/01/09 22:01:04;;;;;;;10.73;5.63;;;;;-4.40;102385.00;;;;9780008;30;20320;-80
2024/01/09 22:06:06;;;;;;;9.73;5.60;;;;;-4.40;102387.00;;;;9806417;30;20294;-80
2024/01/09 22:11:07;;;;;;;10.90;5.70;;;;;-4.50;102387.00;;;;9801174;30;20280;-82
2024/01/09 22:16:10;;;;;;;13.73;6.50;;;;;-4.60;102392.00;;;;9788285;30;20759;-80
2024/01/09 22:21:11;;;;;;;10.17;6.30;;;;;-4.60;102386.00;;;;9776484;30;20235;-80
2024/01/09 22:26:20;;;;;;;12.63;5.47;;;;;-4.60;102394.00;;;;9798950;30;20304;-79
2024/01/09 22:31:21;;;;;;;10.60;6.33;;;;;-4.60;102402.00;;;;9781864;30;20235;-81
2024/01/09 22:36:23;;;;;;;12.30;6.43;;;;;-4.70;102388.00;;;;9805393;30;20233;-83
2024/01/09 22:41:25;;;;;;;9.80;6.43;;;;;-4.70;102392.00;;;;9795018;30;20681;-79
2024/01/09 22:46:26;;;;;;;9.73;5.73;;;;;-4.80;102404.00;;;;9776032;30;20840;-80
2024/01/09 22:51:27;;;;;;;11.70;6.10;;;;;-4.80;102402.00;;;;9818023;30;20294;-84
2024/01/09 22:56:28;;;;;;;9.57;5.63;;;;;-4.80;102400.00;;;;9812615;30;20240;-83
2024/01/09 23:01:30;;;;;;;13.50;6.27;;;;;-4.90;102399.00;;;;9792577;30;20241;-85
2024/01/09 23:06:31;;;;;;;10.53;5.47;;;;;-4.90;102397.00;;;;9798658;30;20237;-85
2024/01/09 23:11:33;;;;;;;12.13;5.53;;;;;-4.90;102396.00;;;;9824733;30;20223;-85
2024/01/09 23:16:34;;;;;;;10.60;5.87;;;;;-5.00;102394.00;;;;9798307;30;20264;-84
2024/01/09 23:21:37;;;;;;;11.43;6.23;;;;;-5.10;102418.00;;;;9809236;30;20229;-84
2024/01/09 23:26:38;;;;;;;11.97;6.87;;;;;-5.20;102402.00;;;;9781747;30;20233;-84
2024/01/09 23:31:39;;;;;;;12.33;6.30;;;;;-5.20;102408.00;;;;9771553;30;20236;-85
2024/01/09 23:36:47;;;;;;;15.67;6.97;;;;;-5.30;102397.00;;;;9792949;30;20228;-84
2024/01/09 23:41:48;;;;;;;12.50;6.13;;;;;-5.30;102403.00;;;;9783184;30;20323;-84
2024/01/09 23:46:49;;;;;;;12.67;6.27;;;;;-5.30;102399.00;;;;9812075;30;20692;-83
2024/01/09 23:51:50;;;;;;;17.13;6.97;;;;;-5.40;102388.00;;;;9814285;30;20977;-85
2024/01/09 23:56:52;;;;;;;17.40;6.60;;;;;-5.50;102384.00;;;;9796119;30;20241;-85
